createdAt,value
2018-06-04T00:02:10.990Z,16.50
2018-06-04T00:07:06.154Z,16.50
2018-06-04T00:09:34.755Z,16.40
2018-06-04T00:12:02.320Z,16.40
2018-06-04T00:14:29.903Z,16.40
2018-06-04T00:16:57.451Z,16.40
2018-06-04T00:19:25.010Z,16.30
2018-06-04T00:21:52.570Z,16.40
2018-06-04T00:24:20.106Z,16.30
2018-06-04T00:26:47.658Z,16.30
2018-06-04T00:29:15.220Z,16.40
2018-06-04T00:31:42.783Z,16.30
2018-06-04T00:34:10.334Z,16.30
2018-06-04T00:36:37.878Z,16.30
2018-06-04T00:39:07.775Z,16.30
2018-06-04T00:41:35.683Z,16.30
2018-06-04T00:44:03.238Z,16.30
2018-06-04T00:46:30.911Z,16.20
2018-06-04T00:48:58.461Z,16.20
2018-06-04T00:51:26.001Z,16.20
2018-06-04T00:53:53.529Z,16.10
2018-06-04T00:56:22.586Z,16.10
2018-06-04T00:58:50.134Z,16.00
2018-06-04T01:01:17.727Z,16.00
2018-06-04T01:03:45.283Z,16.00
2018-06-04T01:06:12.850Z,16.00
2018-06-04T01:08:40.389Z,16.00
2018-06-04T01:11:09.051Z,16.00
2018-06-04T01:13:36.603Z,16.00
2018-06-04T01:16:04.196Z,16.00
2018-06-04T01:18:31.754Z,15.90
2018-06-04T01:20:59.315Z,15.90
2018-06-04T01:23:26.845Z,15.90
2018-06-04T01:25:54.397Z,15.90
2018-06-04T01:28:21.939Z,15.90
2018-06-04T01:30:49.498Z,15.90
2018-06-04T01:33:17.061Z,15.90
2018-06-04T01:35:44.634Z,15.80
2018-06-04T01:40:39.803Z,15.80
2018-06-04T01:43:07.361Z,15.70
2018-06-04T01:45:34.996Z,15.70
2018-06-04T01:48:02.560Z,15.70
2018-06-04T01:50:30.106Z,15.70
2018-06-04T01:52:57.670Z,15.70
2018-06-04T01:55:25.227Z,15.80
2018-06-04T01:57:52.786Z,15.80
2018-06-04T02:00:20.345Z,15.80
2018-06-04T02:02:47.897Z,15.90
2018-06-04T02:05:15.453Z,15.90
2018-06-04T02:07:43.009Z,16.00
2018-06-04T02:10:10.552Z,16.00
2018-06-04T02:12:38.107Z,16.10
2018-06-04T02:15:05.677Z,16.10
2018-06-04T02:17:33.233Z,16.10
2018-06-04T02:20:00.783Z,16.10
2018-06-04T02:22:28.325Z,16.10
2018-06-04T02:24:55.870Z,16.00
2018-06-04T02:27:23.422Z,16.00
2018-06-04T02:29:50.982Z,16.00
2018-06-04T02:32:18.569Z,15.90
2018-06-04T02:34:46.130Z,15.90
2018-06-04T02:37:13.709Z,15.80
2018-06-04T02:39:41.266Z,15.80
2018-06-04T02:42:08.825Z,15.70
2018-06-04T02:44:36.385Z,15.70
2018-06-04T02:47:04.119Z,15.70
2018-06-04T02:49:31.670Z,15.70
2018-06-04T02:51:59.219Z,15.70
2018-06-04T02:54:26.774Z,15.70
2018-06-04T02:56:54.325Z,15.70
2018-06-04T02:59:21.887Z,15.70
2018-06-04T03:01:49.459Z,15.80
2018-06-04T03:04:17.038Z,15.70
2018-06-04T03:06:44.587Z,15.80
2018-06-04T03:09:12.159Z,15.70
2018-06-04T03:11:39.724Z,15.80
2018-06-04T03:14:07.274Z,15.70
2018-06-04T03:16:34.839Z,15.70
2018-06-04T03:19:02.415Z,15.70
2018-06-04T03:21:29.957Z,15.70
2018-06-04T03:23:57.520Z,15.70
2018-06-04T03:26:25.058Z,15.70
2018-06-04T03:28:52.638Z,15.70
2018-06-04T03:31:20.198Z,15.70
2018-06-04T03:33:47.753Z,15.70
2018-06-04T03:36:15.289Z,15.70
2018-06-04T03:38:42.845Z,15.70
2018-06-04T03:41:10.393Z,15.70
2018-06-04T03:43:37.949Z,15.70
2018-06-04T03:46:05.501Z,15.60
2018-06-04T03:48:33.072Z,15.70
2018-06-04T03:51:00.622Z,15.70
2018-06-04T03:55:55.762Z,15.80
2018-06-04T03:58:23.309Z,15.80
2018-06-04T04:00:50.878Z,15.90
2018-06-04T04:05:46.062Z,16.00
2018-06-04T04:08:13.621Z,16.00
2018-06-04T04:10:41.170Z,16.10
2018-06-04T04:13:08.721Z,16.20
2018-06-04T04:15:36.281Z,16.30
2018-06-04T04:18:03.826Z,16.40
2018-06-04T04:20:31.363Z,16.50
2018-06-04T04:22:58.897Z,16.60
2018-06-04T04:25:26.482Z,16.70
2018-06-04T04:30:21.643Z,16.90
2018-06-04T04:32:49.181Z,17.00
2018-06-04T04:35:16.733Z,17.00
2018-06-04T04:37:44.278Z,17.10
2018-06-04T04:40:11.842Z,17.20
2018-06-04T04:42:39.406Z,17.30
2018-06-04T04:45:06.969Z,17.30
2018-06-04T04:47:34.514Z,17.40
2018-06-04T04:50:02.098Z,17.50
2018-06-04T04:52:29.649Z,17.70
2018-06-04T04:54:57.194Z,17.90
2018-06-04T04:57:24.767Z,18.10
2018-06-04T04:59:52.339Z,18.20
2018-06-04T05:02:19.903Z,19.10
2018-06-04T05:04:47.466Z,20.00
2018-06-04T05:07:15.031Z,21.10
2018-06-04T05:09:42.569Z,22.20
2018-06-04T05:12:10.137Z,22.70
2018-06-04T05:14:37.679Z,24.00
2018-06-04T05:17:05.255Z,25.10
2018-06-04T05:19:32.799Z,26.10
2018-06-04T05:22:00.361Z,27.00
2018-06-04T05:26:55.539Z,28.60
2018-06-04T05:29:23.082Z,29.30
2018-06-04T05:31:50.663Z,29.90
2018-06-04T05:34:18.161Z,30.40
2018-06-04T05:36:45.722Z,30.80
2018-06-04T05:39:13.302Z,31.30
2018-06-04T05:41:53.947Z,31.70
2018-06-04T05:46:49.100Z,32.50
2018-06-04T05:49:16.647Z,33.00
2018-06-04T05:51:44.228Z,33.30
2018-06-04T05:54:11.837Z,33.50
2018-06-04T05:56:45.683Z,33.60
2018-06-04T05:59:13.220Z,33.80
2018-06-04T06:01:40.780Z,34.10
2018-06-04T06:04:08.330Z,34.20
2018-06-04T06:06:35.910Z,34.40
2018-06-04T06:09:07.375Z,34.50
2018-06-04T06:11:35.057Z,34.70
2018-06-04T06:14:02.904Z,34.90
2018-06-04T06:16:30.483Z,35.10
2018-06-04T06:18:58.026Z,35.20
2018-06-04T06:21:25.585Z,35.20
2018-06-04T06:23:53.141Z,35.20
2018-06-04T06:26:20.689Z,35.40
2018-06-04T06:28:48.239Z,35.70
2018-06-04T06:31:15.794Z,35.90
2018-06-04T06:33:43.330Z,36.00
2018-06-04T06:36:10.881Z,36.10
2018-06-04T06:38:38.426Z,36.30
2018-06-04T06:41:06.002Z,36.40
2018-06-04T06:43:33.555Z,36.60
2018-06-04T06:46:01.107Z,36.70
2018-06-04T06:48:28.641Z,36.50
2018-06-04T06:50:56.185Z,36.60
2018-06-04T06:53:23.732Z,36.80
2018-06-04T06:55:51.298Z,37.10
2018-06-04T06:58:18.859Z,37.30
2018-06-04T07:00:46.404Z,37.50
2018-06-04T07:03:13.966Z,37.30
2018-06-04T07:05:41.526Z,37.20
2018-06-04T07:08:09.101Z,37.30
2018-06-04T07:10:36.637Z,37.20
2018-06-04T07:13:04.201Z,37.10
2018-06-04T07:15:31.765Z,37.20
2018-06-04T07:17:59.319Z,37.30
2018-06-04T07:20:26.870Z,37.40
2018-06-04T07:22:54.422Z,37.40
2018-06-04T07:25:21.962Z,37.40
2018-06-04T07:27:49.514Z,37.40
2018-06-04T07:30:17.060Z,37.20
2018-06-04T07:32:44.602Z,36.90
2018-06-04T07:35:12.151Z,36.50
2018-06-04T07:40:08.498Z,36.20
2018-06-04T07:42:36.049Z,35.80
2018-06-04T07:45:03.659Z,35.70
2018-06-04T07:47:32.066Z,35.10
2018-06-04T07:50:00.507Z,34.90
2018-06-04T07:52:28.464Z,34.90
2018-06-04T07:54:56.054Z,35.00
2018-06-04T07:57:23.849Z,34.70
2018-06-04T07:59:51.390Z,33.60
2018-06-04T08:02:18.936Z,32.70
2018-06-04T08:04:46.461Z,32.60
2018-06-04T08:07:14.002Z,32.40
2018-06-04T08:09:41.575Z,31.80
2018-06-04T08:12:09.135Z,32.30
2018-06-04T08:14:36.689Z,32.80
2018-06-04T08:17:04.491Z,33.40
2018-06-04T08:19:32.058Z,33.90
2018-06-04T08:21:59.623Z,34.30
2018-06-04T08:24:27.163Z,34.70
2018-06-04T08:26:54.714Z,34.90
2018-06-04T08:29:22.315Z,34.90
2018-06-04T08:31:49.848Z,34.00
2018-06-04T08:34:17.390Z,33.00
2018-06-04T08:36:44.949Z,32.80
2018-06-04T08:39:12.519Z,33.20
2018-06-04T08:41:40.069Z,33.40
2018-06-04T08:44:07.670Z,33.70
2018-06-04T08:46:35.221Z,33.60
2018-06-04T08:49:02.787Z,34.00
2018-06-04T08:51:30.330Z,34.20
2018-06-04T08:53:57.902Z,34.60
2018-06-04T08:56:27.511Z,34.80
2018-06-04T08:58:55.063Z,34.10
2018-06-04T09:01:22.621Z,33.40
2018-06-04T09:03:50.141Z,32.70
2018-06-04T09:06:17.714Z,31.90
2018-06-04T09:08:45.264Z,31.50
2018-06-04T09:11:12.814Z,32.10
2018-06-04T09:13:40.361Z,32.10
2018-06-04T09:16:07.913Z,31.90
2018-06-04T09:18:35.474Z,31.60
2018-06-04T09:21:03.065Z,31.30
2018-06-04T09:23:41.311Z,31.00
2018-06-04T09:26:08.879Z,31.10
2018-06-04T09:28:36.409Z,32.10
2018-06-04T09:31:03.960Z,33.20
2018-06-04T09:33:31.507Z,34.20
2018-06-04T09:35:59.053Z,34.70
2018-06-04T09:38:26.597Z,35.40
2018-06-04T09:40:54.138Z,35.50
2018-06-04T09:43:21.678Z,35.40
2018-06-04T09:45:49.258Z,34.90
2018-06-04T09:48:16.793Z,34.00
2018-06-04T09:50:44.330Z,33.30
2018-06-04T09:53:11.900Z,32.70
2018-06-04T09:55:39.455Z,32.10
2018-06-04T09:58:07.006Z,32.00
2018-06-04T10:00:35.317Z,32.80
2018-06-04T10:03:04.718Z,33.80
2018-06-04T10:05:32.271Z,34.70
2018-06-04T10:07:59.846Z,34.40
2018-06-04T10:10:27.383Z,34.30
2018-06-04T10:12:54.923Z,34.60
2018-06-04T10:15:22.522Z,34.50
2018-06-04T10:17:50.057Z,34.20
2018-06-04T10:20:17.597Z,34.40
2018-06-04T10:22:45.154Z,33.90
2018-06-04T10:25:12.725Z,33.50
2018-06-04T10:27:40.281Z,33.60
2018-06-04T10:30:07.833Z,34.00
2018-06-04T10:32:35.386Z,34.40
2018-06-04T10:35:02.955Z,35.30
2018-06-04T10:37:30.550Z,35.70
2018-06-04T10:39:58.097Z,35.90
2018-06-04T10:42:25.650Z,35.90
2018-06-04T10:44:53.202Z,36.10
2018-06-04T10:47:20.762Z,36.10
2018-06-04T10:49:48.306Z,36.10
2018-06-04T10:52:15.856Z,35.50
2018-06-04T10:54:43.421Z,34.80
2018-06-04T10:57:10.966Z,34.00
2018-06-04T10:59:38.522Z,33.40
2018-06-04T11:02:06.078Z,32.90
2018-06-04T11:04:33.650Z,33.10
2018-06-04T11:07:01.231Z,33.80
2018-06-04T11:09:28.807Z,34.60
2018-06-04T11:11:56.360Z,35.50
2018-06-04T11:14:23.918Z,36.20
2018-06-04T11:16:51.438Z,36.80
2018-06-04T11:19:19.038Z,36.70
2018-06-04T11:21:46.582Z,36.00
2018-06-04T11:24:14.162Z,35.40
2018-06-04T11:29:09.366Z,35.10
2018-06-04T11:31:36.921Z,35.30
2018-06-04T11:34:04.663Z,35.70
2018-06-04T11:36:32.210Z,36.40
2018-06-04T11:38:59.754Z,37.00
2018-06-04T11:41:27.297Z,37.40
2018-06-04T11:43:54.907Z,37.80
2018-06-04T11:46:22.419Z,38.30
2018-06-04T11:48:49.973Z,38.40
2018-06-04T11:51:17.528Z,38.10
2018-06-04T11:53:45.074Z,37.80
2018-06-04T11:56:12.614Z,37.70
2018-06-04T11:58:40.200Z,37.40
2018-06-04T12:01:07.742Z,37.00
2018-06-04T12:03:35.285Z,37.10
2018-06-04T12:06:02.837Z,37.30
2018-06-04T12:08:30.386Z,37.40
2018-06-04T12:10:57.950Z,37.50
2018-06-04T12:13:25.497Z,37.60
2018-06-04T12:15:53.046Z,37.70
2018-06-04T12:18:20.582Z,37.60
2018-06-04T12:20:48.155Z,37.70
2018-06-04T12:23:15.701Z,37.90
2018-06-04T12:25:43.241Z,38.10
2018-06-04T12:28:10.833Z,37.90
2018-06-04T12:30:38.366Z,37.70
2018-06-04T12:33:05.926Z,37.60
2018-06-04T12:35:33.478Z,37.40
2018-06-04T12:38:01.038Z,37.20
2018-06-04T12:40:28.592Z,37.00
2018-06-04T12:42:56.149Z,37.00
2018-06-04T12:45:23.701Z,37.10
2018-06-04T12:47:51.236Z,37.40
2018-06-04T12:50:18.813Z,37.40
2018-06-04T12:52:46.332Z,37.60
2018-06-04T12:57:41.538Z,37.80
2018-06-04T13:00:09.094Z,38.00
2018-06-04T13:02:36.634Z,38.20
2018-06-04T13:05:04.206Z,38.20
2018-06-04T13:07:31.748Z,38.40
2018-06-04T13:09:59.285Z,38.80
2018-06-04T13:12:26.826Z,39.10
2018-06-04T13:14:54.345Z,39.30
2018-06-04T13:17:21.903Z,39.50
2018-06-04T13:19:49.432Z,39.80
2018-06-04T13:22:16.965Z,39.70
2018-06-04T13:24:44.502Z,39.60
2018-06-04T13:27:12.055Z,39.50
2018-06-04T13:29:39.603Z,39.80
2018-06-04T13:32:07.158Z,40.20
2018-06-04T13:34:34.685Z,40.70
2018-06-04T13:37:02.241Z,41.00
2018-06-04T13:39:29.789Z,41.30
2018-06-04T13:41:57.341Z,41.00
2018-06-04T13:44:24.865Z,40.70
2018-06-04T13:46:52.425Z,39.70
2018-06-04T13:49:19.961Z,38.10
2018-06-04T13:51:47.514Z,36.70
2018-06-04T13:54:15.069Z,35.70
2018-06-04T13:56:42.628Z,34.90
2018-06-04T13:59:10.218Z,35.10
2018-06-04T14:01:37.753Z,35.30
2018-06-04T14:04:05.317Z,35.00
2018-06-04T14:06:32.873Z,34.40
2018-06-04T14:09:00.423Z,33.70
2018-06-04T14:11:27.969Z,33.20
2018-06-04T14:13:55.504Z,33.30
2018-06-04T14:16:23.040Z,33.70
2018-06-04T14:18:50.600Z,33.80
2018-06-04T14:21:18.170Z,33.30
2018-06-04T14:23:45.709Z,32.70
2018-06-04T14:26:13.246Z,32.20
2018-06-04T14:28:40.806Z,31.90
2018-06-04T14:31:08.357Z,31.60
2018-06-04T14:33:35.934Z,31.30
2018-06-04T14:36:03.475Z,31.10
2018-06-04T14:38:31.032Z,30.90
2018-06-04T14:40:58.659Z,30.70
2018-06-04T14:43:26.202Z,31.00
2018-06-04T14:45:53.753Z,32.00
2018-06-04T14:48:21.282Z,33.00
2018-06-04T14:50:48.829Z,33.60
2018-06-04T14:53:16.376Z,34.20
2018-06-04T14:55:43.946Z,35.00
2018-06-04T14:58:11.472Z,35.70
2018-06-04T15:00:39.012Z,36.30
2018-06-04T15:03:06.558Z,36.80
2018-06-04T15:05:34.081Z,37.30
2018-06-04T15:08:01.640Z,37.40
2018-06-04T15:10:29.170Z,37.30
2018-06-04T15:12:56.718Z,37.00
2018-06-04T15:15:24.286Z,36.80
2018-06-04T15:17:51.820Z,36.90
2018-06-04T15:20:19.366Z,36.80
2018-06-04T15:22:46.952Z,36.70
2018-06-04T15:25:14.488Z,36.80
2018-06-04T15:27:42.009Z,36.90
2018-06-04T15:30:09.577Z,36.80
2018-06-04T15:32:37.167Z,36.60
2018-06-04T15:35:04.751Z,36.50
2018-06-04T15:37:32.291Z,36.40
2018-06-04T15:39:59.831Z,36.10
2018-06-04T15:42:27.369Z,36.00
2018-06-04T15:44:54.914Z,35.80
2018-06-04T15:47:22.464Z,35.90
2018-06-04T15:49:50.009Z,35.70
2018-06-04T15:52:17.549Z,35.20
2018-06-04T15:54:45.093Z,34.80
2018-06-04T15:57:12.638Z,34.40
2018-06-04T15:59:40.165Z,34.40
2018-06-04T16:02:07.706Z,34.30
2018-06-04T16:04:35.261Z,34.00
2018-06-04T16:07:02.797Z,33.90
2018-06-04T16:09:30.385Z,34.00
2018-06-04T16:11:57.906Z,34.00
2018-06-04T16:14:25.453Z,34.00
2018-06-04T16:16:53.001Z,34.00
2018-06-04T16:19:20.543Z,33.90
2018-06-04T16:21:48.060Z,33.80
2018-06-04T16:24:15.597Z,33.50
2018-06-04T16:26:43.137Z,33.30
2018-06-04T16:29:10.686Z,33.00
2018-06-04T16:31:38.225Z,32.90
2018-06-04T16:34:05.786Z,32.70
2018-06-04T16:36:33.366Z,32.50
2018-06-04T16:39:00.907Z,32.40
2018-06-04T16:41:28.449Z,32.10
2018-06-04T16:43:55.986Z,31.70
2018-06-04T16:46:23.538Z,31.40
2018-06-04T16:48:51.088Z,31.20
2018-06-04T16:51:18.658Z,30.90
2018-06-04T16:53:46.195Z,30.70
2018-06-04T16:56:13.746Z,30.60
2018-06-04T16:58:41.296Z,30.30
2018-06-04T17:01:08.847Z,30.20
2018-06-04T17:03:36.374Z,30.10
2018-06-04T17:06:03.978Z,29.90
2018-06-04T17:08:31.538Z,29.80
2018-06-04T17:10:59.080Z,29.70
2018-06-04T17:13:26.621Z,29.60
2018-06-04T17:15:54.174Z,29.40
2018-06-04T17:18:21.716Z,29.20
2018-06-04T17:20:49.279Z,29.10
2018-06-04T17:23:16.821Z,29.00
2018-06-04T17:25:44.402Z,28.90
2018-06-04T17:28:11.943Z,28.90
2018-06-04T17:30:39.497Z,28.90
2018-06-04T17:33:07.034Z,28.80
2018-06-04T17:35:34.602Z,28.80
2018-06-04T17:38:02.130Z,28.80
2018-06-04T17:40:29.684Z,28.80
2018-06-04T17:42:57.231Z,28.80
2018-06-04T17:45:24.788Z,28.70
2018-06-04T17:47:52.333Z,28.70
2018-06-04T17:50:19.885Z,28.60
2018-06-04T17:52:47.437Z,28.60
2018-06-04T17:55:14.998Z,28.60
2018-06-04T17:57:42.559Z,28.50
2018-06-04T18:00:10.170Z,28.40
2018-06-04T18:02:37.717Z,28.40
2018-06-04T18:05:05.287Z,28.20
2018-06-04T18:07:32.855Z,28.00
2018-06-04T18:10:00.386Z,27.90
2018-06-04T18:12:27.956Z,27.80
2018-06-04T18:14:55.502Z,27.70
2018-06-04T18:17:23.041Z,27.50
2018-06-04T18:19:50.577Z,27.30
2018-06-04T18:22:18.134Z,27.10
2018-06-04T18:24:45.669Z,26.80
2018-06-04T18:27:13.222Z,26.60
2018-06-04T18:29:40.771Z,26.30
2018-06-04T18:32:08.321Z,26.00
2018-06-04T18:34:35.870Z,25.80
2018-06-04T18:37:03.438Z,25.60
2018-06-04T18:39:30.981Z,25.30
2018-06-04T18:41:58.550Z,25.10
2018-06-04T18:44:26.120Z,24.80
2018-06-04T18:46:53.665Z,24.70
2018-06-04T18:49:21.227Z,24.40
2018-06-04T18:51:48.778Z,24.20
2018-06-04T18:54:16.343Z,24.10
2018-06-04T18:56:43.885Z,23.80
2018-06-04T18:59:11.441Z,23.60
2018-06-04T19:01:38.985Z,23.40
2018-06-04T19:04:06.541Z,23.20
2018-06-04T19:06:34.095Z,23.10
2018-06-04T19:09:01.789Z,22.90
2018-06-04T19:11:29.229Z,22.70
2018-06-04T19:13:56.802Z,22.60
2018-06-04T19:16:24.355Z,22.40
2018-06-04T19:19:11.179Z,22.30
2018-06-04T19:21:38.737Z,22.10
2018-06-04T19:24:06.298Z,22.00
2018-06-04T19:26:33.853Z,21.80
2018-06-04T19:29:01.432Z,21.70
2018-06-04T19:31:28.982Z,21.60
2018-06-04T19:33:56.734Z,21.50
2018-06-04T19:36:24.289Z,21.40
2018-06-04T19:38:51.825Z,21.30
2018-06-04T19:41:19.413Z,21.20
2018-06-04T19:43:46.992Z,21.10
2018-06-04T19:46:14.533Z,20.90
2018-06-04T19:48:42.069Z,20.80
2018-06-04T19:51:09.646Z,20.70
2018-06-04T19:53:37.200Z,20.60
2018-06-04T19:56:04.825Z,20.50
2018-06-04T19:58:32.394Z,20.50
2018-06-04T20:00:59.982Z,20.40
2018-06-04T20:03:27.566Z,20.30
2018-06-04T20:05:55.182Z,20.20
2018-06-04T20:08:22.766Z,20.20
2018-06-04T20:10:50.334Z,20.10
2018-06-04T20:13:17.891Z,20.20
2018-06-04T20:15:45.437Z,20.20
2018-06-04T20:18:12.964Z,20.30
2018-06-04T20:20:40.506Z,20.30
2018-06-04T20:23:08.051Z,20.30
2018-06-04T20:25:35.613Z,20.30
2018-06-04T20:28:03.170Z,20.30
2018-06-04T20:30:30.731Z,20.30
2018-06-04T20:32:58.285Z,20.40
2018-06-04T20:35:25.813Z,20.40
2018-06-04T20:37:53.405Z,20.40
2018-06-04T20:40:20.991Z,20.40
2018-06-04T20:42:48.553Z,20.40
2018-06-04T20:45:16.118Z,20.40
2018-06-04T20:47:43.657Z,20.50
2018-06-04T20:50:11.206Z,20.50
2018-06-04T20:55:53.154Z,20.60
2018-06-04T20:58:24.138Z,20.60
2018-06-04T21:01:08.138Z,20.60
2018-06-04T21:04:05.861Z,20.60
2018-06-04T21:12:35.480Z,20.40
2018-06-04T21:15:03.053Z,20.30
2018-06-04T21:20:50.688Z,20.30
2018-06-04T21:23:18.232Z,20.20
2018-06-04T21:25:45.814Z,20.20
2018-06-04T21:28:13.381Z,20.20
2018-06-04T21:30:40.940Z,20.10
2018-06-04T21:33:08.473Z,20.10
2018-06-04T21:35:36.027Z,20.00
2018-06-04T21:38:03.634Z,19.90
2018-06-04T21:40:50.485Z,19.90
2018-06-04T21:46:21.565Z,19.70
2018-06-04T21:48:49.093Z,19.60
2018-06-04T21:51:17.555Z,19.50
2018-06-04T21:53:45.145Z,19.50
2018-06-04T21:56:12.685Z,19.40
2018-06-04T21:58:40.233Z,19.30
2018-06-04T22:01:07.789Z,19.30
2018-06-04T22:03:35.322Z,19.30
2018-06-04T22:06:02.946Z,19.20
2018-06-04T22:08:30.522Z,19.20
2018-06-04T22:10:58.578Z,19.20
2018-06-04T22:13:26.146Z,19.10
2018-06-04T22:15:53.714Z,19.00
2018-06-04T22:18:21.273Z,19.00
2018-06-04T22:20:48.850Z,18.90
2018-06-04T22:23:16.436Z,18.90
2018-06-04T22:25:43.982Z,18.80
2018-06-04T22:28:11.541Z,18.80
2018-06-04T22:30:39.100Z,18.80
2018-06-04T22:33:06.657Z,18.70
2018-06-04T22:35:34.192Z,18.70
2018-06-04T22:38:01.742Z,18.70
2018-06-04T22:40:29.285Z,18.60
2018-06-04T22:42:56.834Z,18.60
2018-06-04T22:45:24.385Z,18.50
2018-06-04T22:47:51.964Z,18.50
2018-06-04T22:50:19.515Z,18.50
2018-06-04T22:52:47.073Z,18.50
2018-06-04T22:55:14.626Z,18.50
2018-06-04T22:57:42.217Z,18.50
2018-06-04T23:00:13.710Z,18.50
2018-06-04T23:02:41.253Z,18.50
2018-06-04T23:05:08.805Z,18.60
2018-06-04T23:07:36.381Z,18.60
2018-06-04T23:10:03.948Z,18.70
2018-06-04T23:12:31.514Z,18.70
2018-06-04T23:14:59.050Z,18.70
2018-06-04T23:17:27.390Z,18.70
2018-06-04T23:19:54.921Z,18.80
2018-06-04T23:22:22.461Z,18.80
2018-06-04T23:24:50.014Z,18.80
2018-06-04T23:27:17.562Z,18.80
2018-06-04T23:29:45.117Z,18.80
2018-06-04T23:32:12.656Z,18.80
2018-06-04T23:34:40.250Z,18.80
2018-06-04T23:37:07.784Z,18.80
2018-06-04T23:39:35.324Z,18.80
2018-06-04T23:42:02.881Z,18.70
2018-06-04T23:44:30.441Z,18.70
2018-06-04T23:46:57.978Z,18.70
2018-06-04T23:49:25.546Z,18.60
2018-06-04T23:51:53.705Z,18.60
2018-06-04T23:54:21.253Z,18.60
2018-06-04T23:56:48.790Z,18.60
2018-06-04T23:59:16.329Z,18.60
